createdAt,value
2024-02-29T00:00:17.039Z,98576.94
2024-02-29T00:02:44.018Z,98572.94
2024-02-29T00:05:13.173Z,98561.78
2024-02-29T00:07:41.418Z,98574.06
2024-02-29T00:10:10.478Z,98555.59
2024-02-29T00:12:37.679Z,98553.88
2024-02-29T00:15:05.085Z,98545.00
2024-02-29T00:17:33.183Z,98556.09
2024-02-29T00:20:00.694Z,98546.13
2024-02-29T00:22:27.663Z,98541.00
2024-02-29T00:24:54.759Z,98536.44
2024-02-29T00:27:23.302Z,98567.84
2024-02-29T00:29:50.235Z,98569.69
2024-02-29T00:32:17.506Z,98570.00
2024-02-29T00:34:44.462Z,98573.91
2024-02-29T00:37:11.435Z,98570.16
2024-02-29T00:39:38.443Z,98553.03
2024-02-29T00:42:05.411Z,98566.72
2024-02-29T00:44:32.351Z,98560.88
2024-02-29T00:46:59.293Z,98564.78
2024-02-29T00:49:26.219Z,98560.72
2024-02-29T00:51:53.229Z,98562.56
2024-02-29T00:54:20.219Z,98561.31
2024-02-29T00:56:47.126Z,98560.94
2024-02-29T00:59:14.040Z,98569.34
2024-02-29T01:01:41.018Z,98568.69
2024-02-29T01:04:08.182Z,98567.88
2024-02-29T01:06:35.211Z,98571.31
2024-02-29T01:09:02.104Z,98583.50
2024-02-29T01:11:29.650Z,98574.53
2024-02-29T01:13:56.597Z,98577.78
2024-02-29T01:16:23.547Z,98567.50
2024-02-29T01:18:50.506Z,98562.75
2024-02-29T01:21:17.461Z,98562.06
2024-02-29T01:23:44.383Z,98570.66
2024-02-29T01:26:12.164Z,98554.31
2024-02-29T01:28:39.095Z,98548.56
2024-02-29T01:31:06.678Z,98556.50
2024-02-29T01:33:34.007Z,98556.41
2024-02-29T01:36:01.005Z,98549.31
2024-02-29T01:38:27.919Z,98563.47
2024-02-29T01:40:54.845Z,98554.22
2024-02-29T01:43:21.771Z,98564.06
2024-02-29T01:46:02.809Z,98554.94
2024-02-29T01:48:29.860Z,98566.84
2024-02-29T01:50:57.385Z,98573.00
2024-02-29T01:53:24.330Z,98564.69
2024-02-29T01:55:51.717Z,98547.53
2024-02-29T01:58:18.703Z,98550.06
2024-02-29T02:00:45.715Z,98546.53
2024-02-29T02:03:12.855Z,98555.81
2024-02-29T02:05:39.869Z,98560.75
2024-02-29T02:08:07.626Z,98551.28
2024-02-29T02:10:34.615Z,98561.56
2024-02-29T02:13:01.701Z,98555.28
2024-02-29T02:15:28.760Z,98552.47
2024-02-29T02:17:56.077Z,98547.59
2024-02-29T02:20:23.561Z,98522.53
2024-02-29T02:22:50.439Z,98525.84
2024-02-29T02:25:18.248Z,98533.63
2024-02-29T02:27:45.207Z,98535.44
2024-02-29T02:30:12.721Z,98534.25
2024-02-29T02:32:41.031Z,98516.97
2024-02-29T02:35:08.395Z,98544.91
2024-02-29T02:37:36.466Z,98536.75
2024-02-29T02:40:06.484Z,98543.56
2024-02-29T02:42:34.089Z,98526.34
2024-02-29T02:45:01.169Z,98539.97
2024-02-29T02:47:28.129Z,98531.38
2024-02-29T02:49:55.060Z,98540.63
2024-02-29T02:52:22.110Z,98537.69
2024-02-29T02:54:50.833Z,98548.19
2024-02-29T02:57:17.761Z,98547.50
2024-02-29T02:59:44.653Z,98555.38
2024-02-29T03:02:11.674Z,98543.38
2024-02-29T03:04:38.585Z,98539.16
2024-02-29T03:07:05.702Z,98556.53
2024-02-29T03:09:32.789Z,98554.28
2024-02-29T03:11:59.887Z,98566.91
2024-02-29T03:14:26.796Z,98557.41
2024-02-29T03:16:53.725Z,98555.25
2024-02-29T03:19:20.710Z,98569.66
2024-02-29T03:21:47.766Z,98570.78
2024-02-29T03:24:14.847Z,98575.19
2024-02-29T03:26:41.850Z,98559.50
2024-02-29T03:29:09.591Z,98559.41
2024-02-29T03:31:36.494Z,98563.13
2024-02-29T03:34:04.167Z,98548.06
2024-02-29T03:36:31.208Z,98553.56
2024-02-29T03:38:59.316Z,98558.03
2024-02-29T03:41:26.390Z,98553.16
2024-02-29T03:43:53.324Z,98562.94
2024-02-29T03:46:20.349Z,98554.38
2024-02-29T03:48:47.489Z,98559.69
2024-02-29T03:51:15.023Z,98562.81
2024-02-29T03:53:41.930Z,98558.09
2024-02-29T03:56:08.871Z,98551.47
2024-02-29T03:58:35.843Z,98538.69
2024-02-29T04:01:02.907Z,98533.09
2024-02-29T04:03:30.205Z,98540.16
2024-02-29T04:05:57.180Z,98530.44
2024-02-29T04:08:24.204Z,98534.00
2024-02-29T04:10:51.973Z,98516.31
2024-02-29T04:13:19.465Z,98531.22
2024-02-29T04:15:49.764Z,98527.25
2024-02-29T04:18:17.643Z,98524.63
2024-02-29T04:20:45.522Z,98529.88
2024-02-29T04:23:12.605Z,98549.25
2024-02-29T04:25:39.669Z,98543.84
2024-02-29T04:28:06.882Z,98547.31
2024-02-29T04:30:33.985Z,98553.72
2024-02-29T04:33:01.943Z,98541.16
2024-02-29T04:35:28.942Z,98524.19
2024-02-29T04:37:55.843Z,98540.41
2024-02-29T04:40:22.897Z,98547.25
2024-02-29T04:42:50.016Z,98550.94
2024-02-29T04:45:17.092Z,98546.31
2024-02-29T04:47:44.060Z,98546.84
2024-02-29T04:50:11.172Z,98555.75
2024-02-29T04:52:38.074Z,98545.63
2024-02-29T04:55:05.478Z,98544.34
2024-02-29T04:57:32.548Z,98547.75
2024-02-29T04:59:59.500Z,98537.31
2024-02-29T05:02:26.425Z,98548.00
2024-02-29T05:04:54.734Z,98550.63
2024-02-29T05:07:22.744Z,98553.56
2024-02-29T05:09:49.757Z,98548.63
2024-02-29T05:12:16.709Z,98565.66
2024-02-29T05:14:43.691Z,98549.25
2024-02-29T05:17:10.693Z,98539.59
2024-02-29T05:19:39.250Z,98543.97
2024-02-29T05:22:06.435Z,98547.97
2024-02-29T05:24:33.377Z,98548.97
2024-02-29T05:27:00.262Z,98538.84
2024-02-29T05:29:27.165Z,98541.75
2024-02-29T05:31:54.629Z,98534.13
2024-02-29T05:34:25.467Z,98546.69
2024-02-29T05:36:52.507Z,98543.81
2024-02-29T05:39:19.859Z,98540.97
2024-02-29T05:41:47.022Z,98540.41
2024-02-29T05:44:13.969Z,98528.66
2024-02-29T05:46:41.226Z,98542.75
2024-02-29T05:49:09.264Z,98544.88
2024-02-29T05:51:36.603Z,98547.72
2024-02-29T05:54:03.819Z,98548.56
2024-02-29T05:56:30.744Z,98558.47
2024-02-29T05:58:58.107Z,98555.84
2024-02-29T06:01:25.048Z,98559.75
2024-02-29T06:03:52.186Z,98560.53
2024-02-29T06:06:19.169Z,98574.66
2024-02-29T06:08:46.050Z,98562.94
2024-02-29T06:11:15.193Z,98564.28
2024-02-29T06:13:42.828Z,98573.94
2024-02-29T06:16:12.809Z,98570.28
2024-02-29T06:18:39.803Z,98573.97
2024-02-29T06:21:06.747Z,98574.50
2024-02-29T06:23:33.641Z,98552.31
2024-02-29T06:26:00.532Z,98565.91
2024-02-29T06:28:27.749Z,98553.38
2024-02-29T06:30:55.573Z,98563.53
2024-02-29T06:33:22.569Z,98561.44
2024-02-29T06:35:49.478Z,98580.03
2024-02-29T06:38:20.665Z,98561.75
2024-02-29T06:40:48.305Z,98583.16
2024-02-29T06:43:15.694Z,98582.34
2024-02-29T06:45:49.479Z,98565.59
2024-02-29T06:48:21.321Z,98567.44
2024-02-29T06:50:48.230Z,98577.41
2024-02-29T06:53:15.146Z,98574.50
2024-02-29T06:55:42.195Z,98561.97
2024-02-29T06:58:09.344Z,98567.44
2024-02-29T07:00:36.497Z,98581.31
2024-02-29T07:03:03.732Z,98567.75
2024-02-29T07:05:34.149Z,98580.03
2024-02-29T07:08:03.656Z,98581.34
2024-02-29T07:10:30.640Z,98588.72
2024-02-29T07:12:57.638Z,98602.81
2024-02-29T07:15:24.717Z,98593.38
2024-02-29T07:17:51.785Z,98569.56
2024-02-29T07:20:19.358Z,98555.47
2024-02-29T07:22:47.772Z,98590.47
2024-02-29T07:25:16.032Z,98587.56
2024-02-29T07:27:44.508Z,98586.78
2024-02-29T07:30:11.868Z,98594.38
2024-02-29T07:32:39.151Z,98586.22
2024-02-29T07:35:06.610Z,98568.75
2024-02-29T07:37:34.010Z,98590.44
2024-02-29T07:40:01.557Z,98566.91
2024-02-29T07:42:29.176Z,98575.50
2024-02-29T07:44:56.275Z,98598.78
2024-02-29T07:47:23.256Z,98596.41
2024-02-29T07:49:50.226Z,98602.19
2024-02-29T07:52:17.228Z,98609.47
2024-02-29T07:54:47.146Z,98594.00
2024-02-29T07:57:14.370Z,98601.31
2024-02-29T07:59:41.612Z,98603.66
2024-02-29T08:02:08.896Z,98619.59
2024-02-29T08:04:37.869Z,98606.75
2024-02-29T08:07:05.484Z,98597.75
2024-02-29T08:09:32.403Z,98609.75
2024-02-29T08:11:59.585Z,98583.50
2024-02-29T08:14:26.916Z,98577.50
2024-02-29T08:16:54.041Z,98599.22
2024-02-29T08:19:21.202Z,98597.88
2024-02-29T08:21:49.853Z,98599.34
2024-02-29T08:24:17.149Z,98604.47
2024-02-29T08:26:45.006Z,98607.34
2024-02-29T08:29:16.041Z,98617.22
2024-02-29T08:31:44.859Z,98635.22
2024-02-29T08:34:12.359Z,98612.88
2024-02-29T08:36:39.717Z,98625.34
2024-02-29T08:39:06.668Z,98610.94
2024-02-29T08:41:33.547Z,98621.06
2024-02-29T08:44:00.486Z,98607.06
2024-02-29T08:46:27.899Z,98606.19
2024-02-29T08:48:54.882Z,98592.78
2024-02-29T08:51:21.861Z,98605.88
2024-02-29T08:53:48.728Z,98585.84
2024-02-29T08:56:16.388Z,98599.66
2024-02-29T08:58:43.346Z,98589.88
2024-02-29T09:01:10.377Z,98584.00
2024-02-29T09:03:37.351Z,98591.78
2024-02-29T09:06:04.630Z,98570.44
2024-02-29T09:08:31.571Z,98559.38
2024-02-29T09:10:58.510Z,98572.56
2024-02-29T09:13:30.695Z,98576.31
2024-02-29T09:16:02.762Z,98591.09
2024-02-29T09:18:31.631Z,98585.34
2024-02-29T09:20:58.735Z,98579.16
2024-02-29T09:23:27.707Z,98575.53
2024-02-29T09:25:55.371Z,98581.00
2024-02-29T09:28:22.673Z,98585.88
2024-02-29T09:30:50.026Z,98579.16
2024-02-29T09:33:20.887Z,98572.00
2024-02-29T09:35:47.751Z,98561.81
2024-02-29T09:38:14.650Z,98557.78
2024-02-29T09:40:49.026Z,98572.22
2024-02-29T09:43:20.138Z,98560.69
2024-02-29T09:45:49.772Z,98573.69
2024-02-29T09:48:17.115Z,98569.69
2024-02-29T09:50:44.153Z,98578.84
2024-02-29T09:53:11.518Z,98571.81
2024-02-29T09:55:38.495Z,98571.72
2024-02-29T09:58:06.393Z,98575.81
2024-02-29T10:00:47.291Z,98570.81
2024-02-29T10:03:49.336Z,98580.16
2024-02-29T10:06:17.052Z,98566.41
2024-02-29T10:08:46.160Z,98530.88
2024-02-29T10:11:19.565Z,98531.09
2024-02-29T10:13:46.845Z,98570.22
2024-02-29T10:16:18.434Z,98582.19
2024-02-29T10:18:45.497Z,98530.69
2024-02-29T10:21:16.386Z,98553.50
2024-02-29T10:23:45.858Z,98545.88
2024-02-29T10:26:17.541Z,98551.41
2024-02-29T10:28:44.493Z,98554.91
2024-02-29T10:31:16.990Z,98579.00
2024-02-29T10:34:04.517Z,98563.81
2024-02-29T10:36:55.236Z,98513.38
2024-02-29T10:39:42.494Z,98541.66
2024-02-29T10:42:09.954Z,98545.47
2024-02-29T10:44:53.003Z,98576.88
2024-02-29T11:36:56.238Z,98547.09
2024-02-29T12:29:59.298Z,98593.50
2024-02-29T12:32:42.636Z,98644.34
2024-02-29T12:35:20.175Z,98572.00
2024-02-29T12:37:47.335Z,98610.13
2024-02-29T12:47:23.122Z,98630.34
2024-02-29T12:59:55.638Z,98622.31
2024-02-29T13:09:24.361Z,98612.47
2024-02-29T13:56:27.299Z,98620.41
2024-02-29T13:58:54.511Z,98643.44
2024-02-29T14:01:21.712Z,98640.34
2024-02-29T14:03:48.754Z,98661.97
2024-02-29T14:11:02.731Z,98654.50
2024-02-29T14:16:19.914Z,98660.75
2024-02-29T14:18:47.101Z,98604.94
2024-02-29T14:21:16.862Z,98653.84
2024-02-29T14:30:42.226Z,98625.56
2024-02-29T14:43:52.784Z,98606.81
2024-02-29T14:46:19.749Z,98640.31
2024-02-29T14:48:46.677Z,98626.16
2024-02-29T14:51:13.571Z,98630.97
2024-02-29T14:53:40.414Z,98629.34
2024-02-29T14:56:07.349Z,98639.44
2024-02-29T14:58:34.376Z,98609.28
2024-02-29T15:01:01.673Z,98639.47
2024-02-29T15:03:30.511Z,98627.19
2024-02-29T15:05:57.529Z,98640.97
2024-02-29T15:08:24.556Z,98644.50
2024-02-29T15:10:51.530Z,98643.88
2024-02-29T15:13:18.456Z,98641.91
2024-02-29T15:15:45.365Z,98636.56
2024-02-29T15:18:12.348Z,98635.00
2024-02-29T15:20:39.326Z,98627.41
2024-02-29T15:23:06.546Z,98634.56
2024-02-29T15:25:34.112Z,98633.63
2024-02-29T15:28:05.662Z,98627.09
2024-02-29T15:30:36.950Z,98629.78
2024-02-29T15:33:04.253Z,98636.22
2024-02-29T15:35:31.200Z,98670.97
2024-02-29T15:37:58.243Z,98649.88
2024-02-29T15:40:25.246Z,98651.34
2024-02-29T15:42:52.304Z,98662.31
2024-02-29T15:45:19.236Z,98661.16
2024-02-29T15:47:47.150Z,98657.28
2024-02-29T15:50:14.163Z,98660.09
2024-02-29T15:52:41.164Z,98650.91
2024-02-29T15:55:08.523Z,98647.47
2024-02-29T15:57:35.827Z,98642.47
2024-02-29T16:00:03.450Z,98652.13
2024-02-29T16:02:32.580Z,98643.66
2024-02-29T16:04:59.893Z,98662.19
2024-02-29T16:07:26.764Z,98650.63
2024-02-29T16:09:53.655Z,98669.47
2024-02-29T16:12:21.625Z,98660.66
2024-02-29T16:14:50.077Z,98666.31
2024-02-29T16:17:16.994Z,98674.91
2024-02-29T16:19:44.734Z,98672.88
2024-02-29T16:22:12.552Z,98648.38
2024-02-29T16:24:39.445Z,98664.94
2024-02-29T16:27:06.460Z,98647.19
2024-02-29T16:29:33.460Z,98652.66
2024-02-29T16:32:00.372Z,98650.59
2024-02-29T16:34:28.419Z,98659.03
2024-02-29T16:36:55.501Z,98656.16
2024-02-29T16:39:22.419Z,98658.84
2024-02-29T16:41:49.335Z,98637.06
2024-02-29T16:44:16.228Z,98648.88
2024-02-29T16:46:43.206Z,98659.22
2024-02-29T16:49:10.216Z,98663.31
2024-02-29T16:51:37.247Z,98657.97
2024-02-29T16:54:04.221Z,98678.03
2024-02-29T16:56:31.173Z,98670.50
2024-02-29T16:58:58.166Z,98670.41
2024-02-29T17:01:25.172Z,98676.47
2024-02-29T17:03:52.229Z,98667.88
2024-02-29T17:06:19.554Z,98677.72
2024-02-29T17:08:46.497Z,98659.38
2024-02-29T17:11:13.514Z,98678.09
2024-02-29T17:13:40.460Z,98679.91
2024-02-29T17:16:07.396Z,98682.41
2024-02-29T17:18:34.282Z,98671.44
2024-02-29T17:21:01.474Z,98676.00
2024-02-29T17:23:28.431Z,98680.94
2024-02-29T17:25:55.404Z,98695.06
2024-02-29T17:28:22.454Z,98699.88
2024-02-29T17:30:49.484Z,98698.97
2024-02-29T17:33:18.202Z,98707.41
2024-02-29T17:35:45.830Z,98709.09
2024-02-29T17:38:12.767Z,98712.75
2024-02-29T17:40:39.715Z,98712.00
2024-02-29T17:43:06.686Z,98703.66
2024-02-29T17:45:33.530Z,98717.28
2024-02-29T17:48:00.435Z,98709.22
2024-02-29T17:50:28.917Z,98717.09
2024-02-29T17:52:57.062Z,98724.25
2024-02-29T17:55:24.198Z,98723.25
2024-02-29T17:57:51.133Z,98728.22
2024-02-29T18:00:18.220Z,98738.66
2024-02-29T18:02:45.159Z,98740.91
2024-02-29T18:05:12.909Z,98744.59
2024-02-29T18:07:47.372Z,98745.19
2024-02-29T18:10:22.127Z,98746.31
2024-02-29T18:12:49.114Z,98747.91
2024-02-29T18:15:16.447Z,98757.44
2024-02-29T18:17:45.093Z,98756.41
2024-02-29T18:20:18.682Z,98770.38
2024-02-29T18:22:47.656Z,98764.94
2024-02-29T18:25:17.816Z,98782.50
2024-02-29T18:27:45.001Z,98761.03
2024-02-29T18:30:12.516Z,98775.47
2024-02-29T18:32:39.800Z,98781.28
2024-02-29T18:35:11.032Z,98771.88
2024-02-29T18:37:41.163Z,98776.63
2024-02-29T18:40:12.482Z,98790.22
2024-02-29T18:42:40.243Z,98771.66
2024-02-29T18:45:08.055Z,98780.88
2024-02-29T18:47:35.718Z,98767.03
2024-02-29T18:50:04.059Z,98768.06
2024-02-29T18:52:31.079Z,98771.50
2024-02-29T18:54:58.298Z,98768.63
2024-02-29T18:57:25.221Z,98759.50
2024-02-29T18:59:52.135Z,98775.50
2024-02-29T19:02:19.158Z,98767.19
2024-02-29T19:04:51.484Z,98775.03
2024-02-29T19:07:19.130Z,98776.38
2024-02-29T19:09:47.145Z,98782.41
2024-02-29T19:12:14.290Z,98786.66
2024-02-29T19:14:41.542Z,98789.28
2024-02-29T19:17:08.792Z,98781.66
2024-02-29T19:19:35.825Z,98785.06
2024-02-29T19:22:05.173Z,98788.75
2024-02-29T19:24:32.204Z,98792.16
2024-02-29T19:26:59.152Z,98784.84
2024-02-29T19:29:26.272Z,98800.03
2024-02-29T19:31:54.306Z,98795.09
2024-02-29T19:34:21.876Z,98800.91
2024-02-29T19:36:49.815Z,98798.00
2024-02-29T19:39:16.796Z,98783.38
2024-02-29T19:41:45.150Z,98803.78
2024-02-29T19:44:13.730Z,98802.75
2024-02-29T19:46:47.654Z,98809.03
2024-02-29T19:49:14.755Z,98804.59
2024-02-29T19:51:42.478Z,98804.59
2024-02-29T19:54:11.903Z,98787.50
2024-02-29T19:56:40.083Z,98786.47
2024-02-29T19:59:07.110Z,98781.50
2024-02-29T20:01:34.264Z,98794.84
2024-02-29T20:04:01.235Z,98785.47
2024-02-29T20:06:28.125Z,98787.03
2024-02-29T20:08:55.098Z,98785.50
2024-02-29T20:11:22.196Z,98792.25
2024-02-29T20:13:49.135Z,98792.56
2024-02-29T20:16:16.438Z,98805.38
2024-02-29T20:18:43.366Z,98795.69
2024-02-29T20:21:10.343Z,98790.75
2024-02-29T20:23:37.448Z,98791.53
2024-02-29T20:26:04.492Z,98788.94
2024-02-29T20:28:32.179Z,98790.25
2024-02-29T20:30:59.243Z,98789.22
2024-02-29T20:33:26.202Z,98810.69
2024-02-29T20:35:53.132Z,98811.72
2024-02-29T20:38:20.052Z,98803.84
2024-02-29T20:40:46.948Z,98816.44
2024-02-29T20:43:14.062Z,98813.03
2024-02-29T20:45:41.000Z,98818.28
2024-02-29T20:48:08.238Z,98816.22
2024-02-29T20:50:35.237Z,98814.38
2024-02-29T20:53:02.152Z,98826.97
2024-02-29T20:55:29.213Z,98822.28
2024-02-29T20:57:56.210Z,98825.69
2024-02-29T21:00:23.181Z,98806.59
2024-02-29T21:02:50.108Z,98823.06
2024-02-29T21:05:17.009Z,98813.41
2024-02-29T21:07:44.988Z,98816.81
2024-02-29T21:10:12.292Z,98812.13
2024-02-29T21:12:39.255Z,98820.75
2024-02-29T21:15:06.535Z,98795.09
2024-02-29T21:17:33.677Z,98794.06
2024-02-29T21:20:00.611Z,98807.13
2024-02-29T21:22:28.136Z,98813.69
2024-02-29T21:24:55.212Z,98817.09
2024-02-29T21:27:22.124Z,98815.78
2024-02-29T21:29:49.089Z,98815.50
2024-02-29T21:32:16.001Z,98809.75
2024-02-29T21:34:46.129Z,98814.97
2024-02-29T21:37:13.114Z,98822.81
2024-02-29T21:39:44.724Z,98812.34
2024-02-29T21:42:12.756Z,98813.09
2024-02-29T21:44:39.962Z,98810.25
2024-02-29T21:47:06.942Z,98811.78
2024-02-29T21:49:34.016Z,98804.22
2024-02-29T21:52:01.326Z,98811.28
2024-02-29T21:54:31.743Z,98799.75
2024-02-29T21:56:59.134Z,98821.97
2024-02-29T21:59:26.063Z,98806.03
2024-02-29T22:01:55.168Z,98819.13
2024-02-29T22:04:26.445Z,98816.28
2024-02-29T22:06:53.512Z,98806.84
2024-02-29T22:09:21.050Z,98812.59
2024-02-29T22:11:49.763Z,98826.97
2024-02-29T22:14:23.724Z,98826.97
2024-02-29T22:16:53.233Z,98828.50
2024-02-29T22:19:24.406Z,98828.50
2024-02-29T22:21:51.996Z,98817.25
2024-02-29T22:24:19.497Z,98833.22
2024-02-29T22:26:46.406Z,98828.56
2024-02-29T22:29:13.637Z,98810.75
2024-02-29T22:31:43.901Z,98823.59
2024-02-29T22:34:11.071Z,98827.00
2024-02-29T22:36:38.102Z,98816.28
2024-02-29T22:39:05.259Z,98822.03
2024-02-29T22:41:37.732Z,98823.59
2024-02-29T22:44:07.860Z,98822.81
2024-02-29T22:46:34.760Z,98818.88
2024-02-29T22:49:01.671Z,98819.94
2024-02-29T22:51:28.580Z,98823.34
2024-02-29T22:53:55.620Z,98825.44
2024-02-29T22:56:22.721Z,98821.75
2024-02-29T22:58:49.600Z,98819.13
2024-02-29T23:01:16.710Z,98822.81
2024-02-29T23:03:43.718Z,98833.78
2024-02-29T23:06:13.943Z,98829.34
2024-02-29T23:08:40.865Z,98840.31
2024-02-29T23:11:07.847Z,98835.31
2024-02-29T23:13:34.819Z,98839.22
2024-02-29T23:16:01.859Z,98844.97
2024-02-29T23:18:28.832Z,98861.94
2024-02-29T23:20:57.835Z,98860.84
2024-02-29T23:23:24.735Z,98860.03
2024-02-29T23:25:51.757Z,98866.31
2024-02-29T23:28:19.009Z,98868.91
2024-02-29T23:30:45.981Z,98873.09
2024-02-29T23:33:12.963Z,98872.28
2024-02-29T23:35:39.878Z,98878.81
2024-02-29T23:38:06.758Z,98875.59
2024-02-29T23:40:34.550Z,98863.28
2024-02-29T23:43:01.651Z,98871.06
2024-02-29T23:45:28.954Z,98875.75
2024-02-29T23:47:56.026Z,98880.16
2024-02-29T23:50:26.154Z,98876.44
2024-02-29T23:52:53.090Z,98878.81
2024-02-29T23:55:21.230Z,98875.16
2024-02-29T23:57:48.228Z,98874.41
